createdAt,value
2022-10-05T00:02:39.879Z,77.05
2022-10-05T00:11:02.755Z,77.39
2022-10-05T00:19:34.156Z,77.19
2022-10-05T00:27:58.561Z,77.22
2022-10-05T00:36:21.523Z,77.27
2022-10-05T00:45:02.954Z,77.60
2022-10-05T00:53:31.904Z,77.32
2022-10-05T01:02:01.381Z,77.68
2022-10-05T01:10:43.051Z,77.49
2022-10-05T01:19:21.573Z,77.66
2022-10-05T01:27:47.482Z,77.64
2022-10-05T01:36:21.848Z,77.40
2022-10-05T01:44:56.937Z,77.87
2022-10-05T01:53:42.977Z,77.57
2022-10-05T02:02:13.163Z,77.63
2022-10-05T02:10:58.860Z,77.73
2022-10-05T02:19:30.839Z,77.79
2022-10-05T02:28:04.738Z,77.73
2022-10-05T02:36:34.733Z,78.02
2022-10-05T02:45:06.397Z,78.04
2022-10-05T02:53:35.301Z,78.02
2022-10-05T03:02:15.258Z,78.18
2022-10-05T03:11:07.383Z,78.26
2022-10-05T03:19:49.712Z,78.17
2022-10-05T03:28:25.109Z,78.16
2022-10-05T03:36:48.486Z,78.24
2022-10-05T03:45:33.949Z,78.19
2022-10-05T03:54:29.071Z,78.17
2022-10-05T04:03:28.527Z,78.25
2022-10-05T04:11:56.629Z,78.26
2022-10-05T04:20:25.459Z,78.33
2022-10-05T04:28:57.963Z,78.44
2022-10-05T04:37:46.493Z,78.18
2022-10-05T04:46:24.143Z,78.34
2022-10-05T04:55:22.036Z,78.41
2022-10-05T05:03:57.055Z,78.33
2022-10-05T05:12:46.187Z,78.49
2022-10-05T05:21:12.336Z,78.68
2022-10-05T05:29:45.010Z,78.59
2022-10-05T05:38:21.912Z,78.60
2022-10-05T05:47:09.605Z,78.65
2022-10-05T05:56:00.645Z,78.94
2022-10-05T06:04:35.828Z,78.94
2022-10-05T06:13:06.511Z,79.09
2022-10-05T06:21:42.985Z,79.36
2022-10-05T06:30:09.640Z,79.57
2022-10-05T06:38:54.722Z,79.44
2022-10-05T06:47:24.041Z,79.60
2022-10-05T06:56:17.648Z,79.52
2022-10-05T07:05:32.556Z,79.87
2022-10-05T07:14:11.233Z,79.83
2022-10-05T07:23:03.969Z,79.95
2022-10-05T07:31:31.978Z,80.11
2022-10-05T07:40:10.451Z,80.10
2022-10-05T07:49:03.272Z,80.21
2022-10-05T07:57:45.326Z,80.24
2022-10-05T08:06:15.163Z,80.32
2022-10-05T08:14:57.493Z,80.28
2022-10-05T08:23:57.394Z,80.45
2022-10-05T08:32:45.395Z,80.62
2022-10-05T08:41:14.196Z,80.68
2022-10-05T08:49:46.310Z,80.54
2022-10-05T08:58:24.374Z,80.74
2022-10-05T09:06:51.303Z,80.80
2022-10-05T09:15:25.859Z,80.73
2022-10-05T09:24:05.064Z,80.65
2022-10-05T09:33:05.281Z,80.52
2022-10-05T09:41:31.216Z,80.53
2022-10-05T09:50:04.667Z,80.67
2022-10-05T09:58:47.502Z,80.46
2022-10-05T10:07:35.597Z,80.41
2022-10-05T10:16:33.172Z,80.40
2022-10-05T10:25:19.304Z,80.45
2022-10-05T10:34:18.812Z,80.27
2022-10-05T10:43:19.778Z,80.32
2022-10-05T10:52:16.254Z,80.09
2022-10-05T11:01:01.048Z,80.09
2022-10-05T11:09:58.875Z,79.99
2022-10-05T11:18:41.224Z,80.17
2022-10-05T11:36:18.419Z,80.22
2022-10-05T11:45:11.264Z,80.11
2022-10-05T11:53:39.315Z,79.87
2022-10-05T12:02:21.886Z,79.91
2022-10-05T12:10:59.966Z,79.96
2022-10-05T12:19:36.865Z,79.64
2022-10-05T12:28:13.174Z,79.36
2022-10-05T12:37:03.446Z,79.46
2022-10-05T12:45:53.731Z,79.49
2022-10-05T12:54:31.127Z,79.33
2022-10-05T13:03:10.906Z,79.19
2022-10-05T13:11:43.335Z,79.21
2022-10-05T13:20:47.190Z,79.23
2022-10-05T13:29:25.685Z,79.22
2022-10-05T13:38:15.177Z,78.87
2022-10-05T14:00:26.408Z,78.79
2022-10-05T14:08:53.464Z,78.66
2022-10-05T14:17:36.002Z,78.50
2022-10-05T14:25:59.594Z,78.67
2022-10-05T14:34:32.837Z,78.27
2022-10-05T14:42:57.471Z,78.38
2022-10-05T14:51:33.305Z,78.33
2022-10-05T15:00:18.712Z,78.30
2022-10-05T15:09:35.901Z,78.18
2022-10-05T15:18:08.442Z,78.09
2022-10-05T15:26:57.842Z,78.04
2022-10-05T15:35:40.449Z,78.04
2022-10-05T15:44:09.375Z,77.81
2022-10-05T15:52:49.651Z,77.72
2022-10-05T16:01:18.790Z,77.86
2022-10-05T16:09:59.923Z,77.80
2022-10-05T16:18:29.168Z,77.40
2022-10-05T16:27:00.005Z,77.70
2022-10-05T16:35:46.248Z,77.79
2022-10-05T16:44:22.636Z,77.69
2022-10-05T16:52:50.855Z,77.60
2022-10-05T17:01:19.835Z,77.53
2022-10-05T17:09:58.751Z,77.57
2022-10-05T17:18:50.488Z,77.62
2022-10-05T17:27:25.168Z,77.54
2022-10-05T17:36:03.521Z,77.53
2022-10-05T17:44:27.288Z,77.54
2022-10-05T17:53:40.547Z,77.45
2022-10-05T18:02:16.248Z,77.68
2022-10-05T18:11:12.564Z,77.59
2022-10-05T18:19:37.822Z,77.62
2022-10-05T18:28:10.182Z,77.50
2022-10-05T18:36:53.848Z,77.60
2022-10-05T18:45:36.524Z,77.64
2022-10-05T18:54:33.227Z,77.43
2022-10-05T19:03:14.378Z,77.61
2022-10-05T19:11:59.176Z,77.64
2022-10-05T19:20:54.230Z,77.52
2022-10-05T19:29:43.550Z,77.33
2022-10-05T19:38:06.393Z,77.18
2022-10-05T19:47:02.593Z,77.52
2022-10-05T19:55:34.660Z,77.36
2022-10-05T20:03:58.255Z,77.53
2022-10-05T20:12:23.462Z,77.24
2022-10-05T20:20:48.647Z,77.44
2022-10-05T20:29:14.231Z,77.25
2022-10-05T20:37:37.046Z,77.46
2022-10-05T20:45:59.988Z,77.32
2022-10-05T20:54:25.212Z,77.52
2022-10-05T21:02:48.853Z,77.41
2022-10-05T21:11:12.843Z,77.36
2022-10-05T21:19:39.807Z,77.28
2022-10-05T21:28:02.655Z,77.48
2022-10-05T21:36:26.290Z,77.42
2022-10-05T21:44:49.157Z,77.27
2022-10-05T21:53:16.430Z,77.34
2022-10-05T22:01:39.702Z,77.33
2022-10-05T22:10:06.180Z,77.53
2022-10-05T22:18:29.254Z,77.22
2022-10-05T22:26:52.962Z,77.19
2022-10-05T22:35:16.714Z,77.22
2022-10-05T22:43:40.465Z,77.24
2022-10-05T22:52:03.651Z,77.14
2022-10-05T23:00:40.452Z,77.31
2022-10-05T23:09:10.143Z,77.14
2022-10-05T23:17:36.148Z,77.15
2022-10-05T23:26:00.955Z,77.14
2022-10-05T23:34:26.168Z,77.12
2022-10-05T23:42:49.732Z,77.20
2022-10-05T23:51:14.974Z,77.24
2022-10-05T23:59:37.798Z,77.02
